createdAt,value
2022-09-15T00:00:38.883Z,3.80
2022-09-15T00:01:38.922Z,3.70
2022-09-15T00:02:38.882Z,3.60
2022-09-15T00:03:38.845Z,4.10
2022-09-15T00:04:38.834Z,3.70
2022-09-15T00:05:38.834Z,4.00
2022-09-15T00:06:38.839Z,3.80
2022-09-15T00:07:38.807Z,3.90
2022-09-15T00:08:38.786Z,3.60
2022-09-15T00:09:38.784Z,4.00
2022-09-15T00:10:38.765Z,3.40
2022-09-15T00:11:38.758Z,4.00
2022-09-15T00:12:38.766Z,3.90
2022-09-15T00:13:38.737Z,3.50
2022-09-15T00:14:38.720Z,3.70
2022-09-15T00:15:38.717Z,4.20
2022-09-15T00:16:38.737Z,3.90
2022-09-15T00:17:38.696Z,3.90
2022-09-15T00:18:38.707Z,3.90
2022-09-15T00:19:38.677Z,3.70
2022-09-15T00:20:38.658Z,3.80
2022-09-15T00:21:38.657Z,4.30
2022-09-15T00:22:38.638Z,3.90
2022-09-15T00:23:38.660Z,3.50
2022-09-15T00:24:38.616Z,4.00
2022-09-15T00:25:38.609Z,3.80
2022-09-15T00:26:38.595Z,4.30
2022-09-15T00:27:38.585Z,3.40
2022-09-15T00:28:38.584Z,3.60
2022-09-15T00:29:38.586Z,4.00
2022-09-15T00:30:38.578Z,3.80
2022-09-15T00:31:38.543Z,3.90
2022-09-15T00:32:38.533Z,3.60
2022-09-15T00:33:38.540Z,3.40
2022-09-15T00:34:38.518Z,3.90
2022-09-15T00:35:38.517Z,4.20
2022-09-15T00:36:38.500Z,3.90
2022-09-15T00:37:38.484Z,3.20
2022-09-15T00:38:38.485Z,3.60
2022-09-15T00:39:38.480Z,4.00
2022-09-15T00:40:38.446Z,3.80
2022-09-15T00:41:38.437Z,3.90
2022-09-15T00:42:38.420Z,3.90
2022-09-15T00:43:38.410Z,3.60
2022-09-15T00:44:38.420Z,3.90
2022-09-15T00:45:38.486Z,3.50
2022-09-15T00:46:38.380Z,3.70
2022-09-15T00:47:38.369Z,3.50
2022-09-15T00:48:38.350Z,3.90
2022-09-15T00:49:38.369Z,3.00
2022-09-15T00:50:38.331Z,3.60
2022-09-15T00:51:38.321Z,3.90
2022-09-15T00:52:38.319Z,3.90
2022-09-15T00:53:38.300Z,4.10
2022-09-15T00:54:38.310Z,3.60
2022-09-15T00:55:38.291Z,3.40
2022-09-15T00:56:38.272Z,3.40
2022-09-15T00:57:38.259Z,3.90
2022-09-15T00:58:38.251Z,3.70
2022-09-15T00:59:38.263Z,4.00
2022-09-15T01:00:38.246Z,3.80
2022-09-15T01:01:38.268Z,3.60
2022-09-15T01:02:38.255Z,3.90
2022-09-15T01:03:38.193Z,3.70
2022-09-15T01:04:38.210Z,3.60
2022-09-15T01:05:38.172Z,3.50
2022-09-15T01:06:38.154Z,3.40
2022-09-15T01:07:38.155Z,3.30
2022-09-15T01:08:38.132Z,3.70
2022-09-15T01:09:38.132Z,3.40
2022-09-15T01:10:38.135Z,3.50
2022-09-15T01:11:38.105Z,3.50
2022-09-15T01:12:38.103Z,3.40
2022-09-15T01:13:38.083Z,3.40
2022-09-15T01:14:38.073Z,3.40
2022-09-15T01:15:38.063Z,3.50
2022-09-15T01:16:38.148Z,3.30
2022-09-15T01:17:38.046Z,3.40
2022-09-15T01:18:38.034Z,3.70
2022-09-15T01:19:38.044Z,3.50
2022-09-15T01:20:38.025Z,3.20
2022-09-15T01:21:37.995Z,3.70
2022-09-15T01:22:37.993Z,3.40
2022-09-15T01:23:37.976Z,3.20
2022-09-15T01:24:37.966Z,3.20
2022-09-15T01:25:37.975Z,3.10
2022-09-15T01:26:37.954Z,3.50
2022-09-15T01:27:42.440Z,3.40
2022-09-15T01:28:37.925Z,4.00
2022-09-15T01:29:37.912Z,3.50
2022-09-15T01:30:37.930Z,3.90
2022-09-15T01:31:37.962Z,3.80
2022-09-15T01:32:37.886Z,3.70
2022-09-15T01:33:37.864Z,3.40
2022-09-15T01:34:37.866Z,3.80
2022-09-15T01:35:37.866Z,3.80
2022-09-15T01:36:37.837Z,3.50
2022-09-15T01:37:37.826Z,3.50
2022-09-15T01:38:37.816Z,3.70
2022-09-15T01:39:37.806Z,3.80
2022-09-15T01:40:37.817Z,3.60
2022-09-15T01:41:37.799Z,3.40
2022-09-15T01:42:37.778Z,3.70
2022-09-15T01:43:37.761Z,3.60
2022-09-15T01:44:37.759Z,3.30
2022-09-15T01:45:37.806Z,3.90
2022-09-15T01:46:37.754Z,4.00
2022-09-15T01:47:37.719Z,3.90
2022-09-15T01:48:37.709Z,3.30
2022-09-15T01:49:37.691Z,3.40
2022-09-15T01:50:37.689Z,3.80
2022-09-15T01:51:37.671Z,3.80
2022-09-15T01:52:37.692Z,3.70
2022-09-15T01:53:37.653Z,3.30
2022-09-15T01:54:37.638Z,3.20
2022-09-15T01:55:37.628Z,4.00
2022-09-15T01:56:37.649Z,3.10
2022-09-15T01:57:37.648Z,3.80
2022-09-15T01:58:37.598Z,3.90
2022-09-15T01:59:37.587Z,3.80
2022-09-15T02:00:37.577Z,4.20
2022-09-15T02:01:37.638Z,3.90
2022-09-15T02:02:37.626Z,4.10
2022-09-15T02:03:37.571Z,3.50
2022-09-15T02:04:37.538Z,3.30
2022-09-15T02:05:37.528Z,3.40
2022-09-15T02:06:37.511Z,3.40
2022-09-15T02:07:37.499Z,3.70
2022-09-15T02:08:37.489Z,3.60
2022-09-15T02:09:37.499Z,3.80
2022-09-15T02:10:37.472Z,3.80
2022-09-15T02:11:37.459Z,3.10
2022-09-15T02:12:37.450Z,3.10
2022-09-15T02:13:37.451Z,3.40
2022-09-15T02:14:37.430Z,3.40
2022-09-15T02:15:37.410Z,3.30
2022-09-15T02:16:37.476Z,3.90
2022-09-15T02:17:37.390Z,3.30
2022-09-15T02:18:37.402Z,3.10
2022-09-15T02:19:37.370Z,2.70
2022-09-15T02:20:37.366Z,3.20
2022-09-15T02:21:37.353Z,3.40
2022-09-15T02:22:37.343Z,3.10
2022-09-15T02:23:37.349Z,3.60
2022-09-15T02:24:37.324Z,3.10
2022-09-15T02:25:37.304Z,3.00
2022-09-15T02:26:37.301Z,3.30
2022-09-15T02:27:37.296Z,3.10
2022-09-15T02:28:37.293Z,2.70
2022-09-15T02:29:37.263Z,3.40
2022-09-15T02:30:37.266Z,3.00
2022-09-15T02:31:37.297Z,3.00
2022-09-15T02:32:37.233Z,3.20
2022-09-15T02:33:37.242Z,3.10
2022-09-15T02:34:37.212Z,2.70
2022-09-15T02:35:37.204Z,3.50
2022-09-15T02:36:37.193Z,3.20
2022-09-15T02:37:37.173Z,3.00
2022-09-15T02:38:37.173Z,3.00
2022-09-15T02:39:37.183Z,3.30
2022-09-15T02:40:37.165Z,3.60
2022-09-15T02:41:37.125Z,3.00
2022-09-15T02:42:37.122Z,2.80
2022-09-15T02:43:37.114Z,3.20
2022-09-15T02:44:37.097Z,2.90
2022-09-15T02:45:37.137Z,3.00
2022-09-15T02:46:37.084Z,3.00
2022-09-15T02:47:37.064Z,3.00
2022-09-15T02:48:37.056Z,3.00
2022-09-15T02:49:37.045Z,3.50
2022-09-15T02:50:37.035Z,2.50
2022-09-15T02:51:37.044Z,3.30
2022-09-15T02:52:37.014Z,2.30
2022-09-15T02:53:36.996Z,3.20
2022-09-15T02:54:36.993Z,2.70
2022-09-15T02:55:36.986Z,2.90
2022-09-15T02:56:36.966Z,2.80
2022-09-15T02:57:36.976Z,3.00
2022-09-15T02:58:36.945Z,3.00
2022-09-15T02:59:36.937Z,2.60
2022-09-15T03:00:36.961Z,2.50
2022-09-15T03:01:36.973Z,2.70
2022-09-15T03:02:36.932Z,2.50
2022-09-15T03:03:39.908Z,2.40
2022-09-15T03:04:37.879Z,2.40
2022-09-15T03:05:36.866Z,2.50
2022-09-15T03:06:36.858Z,2.10
2022-09-15T03:07:36.855Z,2.40
2022-09-15T03:08:36.857Z,2.10
2022-09-15T03:09:36.824Z,2.40
2022-09-15T03:10:36.817Z,1.90
2022-09-15T03:11:36.800Z,2.30
2022-09-15T03:12:36.827Z,1.90
2022-09-15T03:13:36.779Z,2.00
2022-09-15T03:14:36.777Z,1.60
2022-09-15T03:15:36.759Z,1.60
2022-09-15T03:16:36.841Z,1.80
2022-09-15T03:17:36.738Z,1.80
2022-09-15T03:18:36.756Z,2.10
2022-09-15T03:19:36.713Z,1.70
2022-09-15T03:20:36.721Z,2.10
2022-09-15T03:21:36.690Z,1.60
2022-09-15T03:22:36.680Z,1.50
2022-09-15T03:23:36.701Z,1.90
2022-09-15T03:24:36.660Z,1.60
2022-09-15T03:25:36.650Z,1.80
2022-09-15T03:26:36.667Z,1.70
2022-09-15T03:27:36.668Z,1.50
2022-09-15T03:28:36.657Z,1.70
2022-09-15T03:29:36.610Z,1.40
2022-09-15T03:30:36.600Z,1.80
2022-09-15T03:31:36.704Z,1.60
2022-09-15T03:32:36.579Z,1.50
2022-09-15T03:33:36.590Z,1.60
2022-09-15T03:34:36.551Z,1.80
2022-09-15T03:35:36.539Z,1.70
2022-09-15T03:36:36.551Z,1.50
2022-09-15T03:37:36.518Z,1.70
2022-09-15T03:38:36.510Z,1.70
2022-09-15T03:39:36.524Z,1.60
2022-09-15T03:40:36.489Z,1.70
2022-09-15T03:41:36.470Z,1.60
2022-09-15T03:42:36.463Z,1.90
2022-09-15T03:43:36.484Z,1.90
2022-09-15T03:44:36.444Z,1.50
2022-09-15T03:45:36.486Z,2.10
2022-09-15T03:46:36.446Z,2.10
2022-09-15T03:47:36.402Z,2.10
2022-09-15T03:48:36.423Z,1.60
2022-09-15T03:49:36.384Z,1.80
2022-09-15T03:50:36.382Z,1.80
2022-09-15T03:51:36.363Z,1.90
2022-09-15T03:52:36.359Z,2.20
2022-09-15T03:53:36.365Z,1.80
2022-09-15T03:54:36.356Z,2.20
2022-09-15T03:55:36.320Z,2.10
2022-09-15T03:56:36.314Z,1.90
2022-09-15T03:57:36.324Z,2.20
2022-09-15T03:58:36.292Z,2.10
2022-09-15T03:59:36.303Z,2.10
2022-09-15T04:00:36.313Z,2.50
2022-09-15T04:01:36.298Z,2.60
2022-09-15T04:02:36.243Z,2.20
2022-09-15T04:03:42.058Z,2.50
2022-09-15T04:04:37.244Z,2.40
2022-09-15T04:05:36.233Z,2.30
2022-09-15T04:06:36.206Z,2.40
2022-09-15T04:07:36.196Z,2.30
2022-09-15T04:08:36.184Z,2.30
2022-09-15T04:09:36.166Z,2.40
2022-09-15T04:10:36.183Z,3.00
2022-09-15T04:11:36.150Z,2.10
2022-09-15T04:12:36.136Z,2.10
2022-09-15T04:13:36.131Z,2.70
2022-09-15T04:14:36.116Z,2.40
2022-09-15T04:15:36.107Z,2.10
2022-09-15T04:16:36.183Z,2.30
2022-09-15T04:17:36.077Z,2.50
2022-09-15T04:18:36.065Z,2.40
2022-09-15T04:19:36.058Z,2.10
2022-09-15T04:20:36.047Z,2.50
2022-09-15T04:21:36.057Z,2.60
2022-09-15T04:22:36.026Z,2.70
2022-09-15T04:23:36.034Z,2.20
2022-09-15T04:24:36.008Z,2.70
2022-09-15T04:25:35.994Z,2.50
2022-09-15T04:26:35.987Z,2.40
2022-09-15T04:27:35.995Z,2.40
2022-09-15T04:28:35.966Z,2.40
2022-09-15T04:29:35.947Z,2.30
2022-09-15T04:30:35.949Z,2.50
2022-09-15T04:31:35.961Z,2.40
2022-09-15T04:32:35.939Z,2.20
2022-09-15T04:33:35.909Z,2.30
2022-09-15T04:34:40.575Z,2.70
2022-09-15T04:35:36.879Z,2.60
2022-09-15T04:36:35.879Z,2.90
2022-09-15T04:37:35.889Z,2.60
2022-09-15T04:38:35.859Z,2.50
2022-09-15T04:39:35.840Z,2.40
2022-09-15T04:40:35.831Z,2.70
2022-09-15T04:41:35.816Z,2.80
2022-09-15T04:42:35.812Z,3.10
2022-09-15T04:43:35.818Z,2.30
2022-09-15T04:44:35.789Z,2.60
2022-09-15T04:45:35.778Z,2.80
2022-09-15T04:46:35.798Z,2.60
2022-09-15T04:47:35.749Z,2.60
2022-09-15T04:48:35.764Z,2.70
2022-09-15T04:49:35.730Z,2.60
2022-09-15T04:50:35.720Z,2.50
2022-09-15T04:51:35.713Z,2.90
2022-09-15T04:52:35.815Z,2.90
2022-09-15T04:53:35.725Z,2.60
2022-09-15T04:54:35.681Z,2.80
2022-09-15T04:55:35.662Z,2.50
2022-09-15T04:56:35.652Z,2.40
2022-09-15T04:57:35.642Z,2.90
2022-09-15T04:58:35.632Z,3.60
2022-09-15T04:59:35.632Z,2.80
2022-09-15T05:00:35.660Z,2.90
2022-09-15T05:01:35.693Z,2.60
2022-09-15T05:02:35.631Z,2.80
2022-09-15T05:03:35.601Z,2.90
2022-09-15T05:04:35.569Z,2.50
2022-09-15T05:05:35.551Z,2.80
2022-09-15T05:06:35.547Z,2.90
2022-09-15T05:07:35.532Z,3.00
2022-09-15T05:08:35.555Z,2.80
2022-09-15T05:09:35.503Z,2.90
2022-09-15T05:10:35.502Z,2.50
2022-09-15T05:11:35.485Z,2.60
2022-09-15T05:12:35.575Z,3.00
2022-09-15T05:13:35.465Z,3.40
2022-09-15T05:14:35.482Z,3.00
2022-09-15T05:15:35.443Z,2.90
2022-09-15T05:16:35.516Z,2.70
2022-09-15T05:17:35.423Z,3.00
2022-09-15T05:18:35.435Z,3.10
2022-09-15T05:19:35.415Z,2.60
2022-09-15T05:20:35.402Z,2.60
2022-09-15T05:21:35.384Z,3.20
2022-09-15T05:22:39.513Z,2.60
2022-09-15T05:23:36.364Z,3.20
2022-09-15T05:24:35.375Z,2.80
2022-09-15T05:25:35.343Z,2.80
2022-09-15T05:26:35.325Z,2.80
2022-09-15T05:27:35.313Z,2.40
2022-09-15T05:28:35.313Z,2.70
2022-09-15T05:29:35.294Z,3.00
2022-09-15T05:30:39.538Z,2.70
2022-09-15T05:31:36.298Z,3.50
2022-09-15T05:32:35.257Z,2.80
2022-09-15T05:33:35.245Z,2.90
2022-09-15T05:34:35.236Z,2.50
2022-09-15T05:35:35.254Z,2.90
2022-09-15T05:36:35.215Z,2.60
2022-09-15T05:37:35.206Z,2.40
2022-09-15T05:38:35.187Z,2.30
2022-09-15T05:39:35.186Z,2.50
2022-09-15T05:40:35.269Z,2.80
2022-09-15T05:41:35.188Z,2.30
2022-09-15T05:42:35.149Z,2.60
2022-09-15T05:43:35.137Z,2.60
2022-09-15T05:44:35.127Z,2.60
2022-09-15T05:45:35.147Z,2.60
2022-09-15T05:46:35.169Z,2.90
2022-09-15T05:47:35.097Z,2.60
2022-09-15T05:48:35.088Z,2.70
2022-09-15T05:49:35.083Z,2.70
2022-09-15T05:50:35.057Z,2.50
2022-09-15T05:51:35.080Z,2.50
2022-09-15T05:52:35.040Z,2.70
2022-09-15T05:53:35.050Z,2.70
2022-09-15T05:54:35.011Z,2.40
2022-09-15T05:55:35.009Z,2.80
2022-09-15T05:56:35.020Z,2.30
2022-09-15T05:57:34.981Z,2.40
2022-09-15T05:58:34.973Z,2.50
2022-09-15T05:59:34.996Z,2.30
2022-09-15T06:00:34.951Z,2.70
2022-09-15T06:01:34.979Z,2.40
2022-09-15T06:02:34.977Z,2.60
2022-09-15T06:03:34.922Z,2.40
2022-09-15T06:04:34.929Z,2.90
2022-09-15T06:05:34.899Z,2.50
2022-09-15T06:06:34.888Z,2.80
2022-09-15T06:07:34.881Z,2.50
2022-09-15T06:08:34.883Z,2.50
2022-09-15T06:09:34.852Z,2.80
2022-09-15T06:10:34.843Z,2.50
2022-09-15T06:11:34.860Z,2.60
2022-09-15T06:12:34.820Z,2.30
2022-09-15T06:13:34.812Z,2.30
2022-09-15T06:14:34.801Z,2.80
2022-09-15T06:15:34.794Z,2.40
2022-09-15T06:16:34.826Z,2.20
2022-09-15T06:17:34.783Z,2.10
2022-09-15T06:18:34.756Z,2.20
2022-09-15T06:19:34.750Z,2.50
2022-09-15T06:20:34.733Z,2.60
2022-09-15T06:21:34.723Z,2.00
2022-09-15T06:22:34.742Z,2.10
2022-09-15T06:23:34.695Z,2.10
2022-09-15T06:24:34.704Z,2.30
2022-09-15T06:25:34.674Z,2.10
2022-09-15T06:26:34.675Z,2.70
2022-09-15T06:27:34.664Z,1.90
2022-09-15T06:28:34.643Z,2.50
2022-09-15T06:29:34.655Z,2.50
2022-09-15T06:30:34.616Z,2.50
2022-09-15T06:31:34.694Z,2.20
2022-09-15T06:32:34.596Z,2.20
2022-09-15T06:33:34.594Z,2.70
2022-09-15T06:34:34.609Z,2.20
2022-09-15T06:35:34.596Z,2.20
2022-09-15T06:36:34.554Z,2.10
2022-09-15T06:37:34.545Z,2.00
2022-09-15T06:38:34.527Z,1.90
2022-09-15T06:39:34.525Z,2.40
2022-09-15T06:40:34.618Z,2.10
2022-09-15T06:41:52.863Z,1.90
2022-09-15T06:42:35.487Z,1.70
2022-09-15T06:43:34.486Z,1.80
2022-09-15T06:44:34.473Z,1.90
2022-09-15T06:45:34.483Z,1.70
2022-09-15T06:46:34.469Z,2.20
2022-09-15T06:47:34.462Z,1.50
2022-09-15T06:48:34.428Z,2.10
2022-09-15T06:49:34.422Z,1.60
2022-09-15T06:50:34.407Z,1.80
2022-09-15T06:51:34.395Z,2.10
2022-09-15T06:52:34.376Z,1.60
2022-09-15T06:53:34.388Z,1.70
2022-09-15T06:54:34.357Z,1.40
2022-09-15T06:55:34.356Z,1.60
2022-09-15T06:56:37.868Z,1.70
2022-09-15T06:57:34.347Z,1.60
2022-09-15T06:58:34.319Z,1.60
2022-09-15T06:59:34.309Z,1.70
2022-09-15T07:00:34.298Z,1.90
2022-09-15T07:01:34.290Z,1.40
2022-09-15T07:02:34.470Z,1.30
2022-09-15T07:03:34.335Z,1.20
2022-09-15T07:04:34.271Z,1.70
2022-09-15T07:05:34.246Z,1.50
2022-09-15T07:06:34.237Z,1.70
2022-09-15T07:07:34.281Z,1.50
2022-09-15T07:08:34.202Z,1.40
2022-09-15T07:09:34.199Z,1.70
2022-09-15T07:10:34.199Z,1.40
2022-09-15T07:11:34.179Z,1.60
2022-09-15T07:12:34.160Z,1.30
2022-09-15T07:13:34.155Z,1.10
2022-09-15T07:14:34.164Z,1.40
2022-09-15T07:15:34.132Z,1.50
2022-09-15T07:16:34.167Z,1.40
2022-09-15T07:17:34.111Z,1.40
2022-09-15T07:18:34.098Z,1.30
2022-09-15T07:19:34.083Z,1.00
2022-09-15T07:20:34.094Z,1.30
2022-09-15T07:21:34.068Z,1.30
2022-09-15T07:22:34.049Z,0.90
2022-09-15T07:23:34.045Z,1.30
2022-09-15T07:24:34.051Z,1.10
2022-09-15T07:25:34.020Z,1.20
2022-09-15T07:26:34.016Z,1.10
2022-09-15T07:27:33.994Z,1.00
2022-09-15T07:28:33.983Z,1.10
2022-09-15T07:29:37.723Z,1.10
2022-09-15T07:30:33.985Z,1.20
2022-09-15T07:31:34.029Z,1.10
2022-09-15T07:32:33.944Z,1.10
2022-09-15T07:33:33.933Z,1.60
2022-09-15T07:34:33.923Z,1.20
2022-09-15T07:35:33.934Z,1.30
2022-09-15T07:36:33.897Z,1.00
2022-09-15T07:37:33.888Z,1.20
2022-09-15T07:38:33.876Z,1.50
2022-09-15T07:39:33.886Z,1.20
2022-09-15T07:40:33.903Z,1.30
2022-09-15T07:41:33.878Z,1.50
2022-09-15T07:42:35.541Z,1.20
2022-09-15T07:43:33.817Z,1.30
2022-09-15T07:44:33.808Z,1.10
2022-09-15T07:45:33.859Z,1.00
2022-09-15T07:46:33.817Z,1.00
2022-09-15T07:47:33.788Z,1.30
2022-09-15T07:48:33.765Z,1.00
2022-09-15T07:49:33.759Z,1.10
2022-09-15T07:50:33.738Z,1.00
2022-09-15T07:51:33.756Z,1.00
2022-09-15T07:52:33.719Z,1.10
2022-09-15T07:53:33.717Z,0.90
2022-09-15T07:54:33.698Z,0.90
2022-09-15T07:55:33.697Z,1.20
2022-09-15T07:56:33.698Z,0.90
2022-09-15T07:57:33.678Z,0.80
2022-09-15T07:58:33.667Z,0.90
2022-09-15T07:59:34.411Z,0.80
2022-09-15T08:00:33.660Z,1.00
2022-09-15T08:01:33.675Z,0.90
2022-09-15T08:02:33.629Z,1.00
2022-09-15T08:03:33.600Z,0.90
2022-09-15T08:04:33.589Z,1.20
2022-09-15T08:05:38.149Z,0.70
2022-09-15T08:06:34.590Z,0.90
2022-09-15T08:07:33.559Z,0.70
2022-09-15T08:08:33.545Z,0.90
2022-09-15T08:09:33.541Z,1.10
2022-09-15T08:10:33.522Z,0.80
2022-09-15T08:11:33.548Z,0.80
2022-09-15T08:12:33.501Z,0.90
2022-09-15T08:13:33.499Z,0.70
2022-09-15T08:14:33.481Z,0.80
2022-09-15T08:15:33.473Z,0.80
2022-09-15T08:16:33.486Z,0.60
2022-09-15T08:17:33.473Z,0.70
2022-09-15T08:18:33.442Z,0.50
2022-09-15T08:19:33.433Z,0.50
2022-09-15T08:20:33.413Z,0.70
2022-09-15T08:21:33.416Z,0.60
2022-09-15T08:22:33.413Z,0.90
2022-09-15T08:23:33.384Z,1.00
2022-09-15T08:24:33.374Z,0.70
2022-09-15T08:25:33.375Z,0.50
2022-09-15T08:26:33.345Z,0.50
2022-09-15T08:27:33.369Z,0.40
2022-09-15T08:28:33.324Z,0.40
2022-09-15T08:29:33.323Z,0.60
2022-09-15T08:30:33.353Z,0.50
2022-09-15T08:31:33.320Z,0.70
2022-09-15T08:32:33.313Z,0.90
2022-09-15T08:33:33.276Z,0.90
2022-09-15T08:34:33.256Z,0.60
2022-09-15T08:35:33.254Z,0.70
2022-09-15T08:36:33.244Z,0.60
2022-09-15T08:37:33.237Z,0.60
2022-09-15T08:38:33.244Z,0.80
2022-09-15T08:39:33.236Z,0.70
2022-09-15T08:40:33.269Z,0.70
2022-09-15T08:41:33.190Z,0.50
2022-09-15T08:42:33.187Z,0.60
2022-09-15T08:43:33.169Z,0.90
2022-09-15T08:44:33.155Z,0.70
2022-09-15T08:45:33.173Z,0.80
2022-09-15T08:46:33.180Z,0.90
2022-09-15T08:47:33.119Z,0.50
2022-09-15T08:48:33.109Z,0.50
2022-09-15T08:49:50.485Z,0.60
2022-09-15T08:50:34.119Z,0.70
2022-09-15T08:51:33.079Z,0.70
2022-09-15T08:52:33.060Z,0.60
2022-09-15T08:53:33.058Z,0.80
2022-09-15T08:54:33.039Z,0.70
2022-09-15T08:55:33.038Z,0.50
2022-09-15T08:56:33.042Z,0.80
2022-09-15T08:57:33.017Z,0.90
2022-09-15T08:58:33.002Z,0.40
2022-09-15T08:59:32.992Z,0.80
2022-09-15T09:00:32.971Z,0.80
2022-09-15T09:01:33.039Z,0.60
2022-09-15T09:02:33.030Z,0.70
2022-09-15T09:03:32.951Z,0.50
2022-09-15T09:04:32.933Z,0.60
2022-09-15T09:05:32.931Z,0.80
2022-09-15T09:06:32.912Z,0.60
2022-09-15T09:07:32.934Z,0.60
2022-09-15T09:08:32.892Z,0.60
2022-09-15T09:09:32.883Z,0.70
2022-09-15T09:10:32.873Z,0.40
2022-09-15T09:11:32.863Z,0.50
2022-09-15T09:12:32.845Z,0.80
2022-09-15T09:13:35.588Z,0.50
2022-09-15T09:14:32.835Z,0.80
2022-09-15T09:15:32.881Z,0.90
2022-09-15T09:16:32.803Z,0.60
2022-09-15T09:17:32.823Z,0.60
2022-09-15T09:18:32.784Z,0.60
2022-09-15T09:19:32.774Z,0.70
2022-09-15T09:20:32.764Z,0.40
2022-09-15T09:21:32.749Z,0.50
2022-09-15T09:22:32.736Z,0.60
2022-09-15T09:23:32.755Z,0.60
2022-09-15T09:24:32.715Z,0.60
2022-09-15T09:25:32.705Z,0.40
2022-09-15T09:26:32.695Z,0.90
2022-09-15T09:27:32.699Z,0.50
2022-09-15T09:28:32.697Z,0.50
2022-09-15T09:29:32.668Z,0.50
2022-09-15T09:30:32.649Z,0.50
2022-09-15T09:31:32.646Z,0.40
2022-09-15T09:32:32.631Z,0.40
2022-09-15T09:33:32.656Z,0.40
2022-09-15T09:34:32.607Z,0.90
2022-09-15T09:35:32.618Z,0.70
2022-09-15T09:36:32.588Z,0.70
2022-09-15T09:37:32.581Z,0.70
2022-09-15T09:38:32.558Z,0.60
2022-09-15T09:39:32.577Z,0.70
2022-09-15T09:40:32.617Z,0.70
2022-09-15T09:41:32.561Z,0.40
2022-09-15T09:42:32.521Z,0.50
2022-09-15T09:43:32.513Z,0.40
2022-09-15T09:44:32.501Z,0.90
2022-09-15T09:45:32.491Z,0.60
2022-09-15T09:46:32.531Z,0.30
2022-09-15T09:47:32.512Z,0.60
2022-09-15T09:48:32.461Z,0.70
2022-09-15T09:49:32.458Z,0.30
2022-09-15T09:50:32.434Z,0.50
2022-09-15T09:51:32.422Z,0.30
2022-09-15T09:52:32.412Z,0.40
2022-09-15T09:53:32.424Z,0.60
2022-09-15T09:54:32.394Z,0.30
2022-09-15T09:55:32.383Z,0.70
2022-09-15T09:56:32.372Z,0.70
2022-09-15T09:57:32.383Z,0.60
2022-09-15T09:58:32.345Z,0.60
2022-09-15T09:59:32.335Z,0.50
2022-09-15T10:00:32.331Z,0.50
2022-09-15T10:01:32.394Z,0.60
2022-09-15T10:02:32.334Z,0.50
2022-09-15T10:03:33.133Z,0.50
2022-09-15T10:04:32.345Z,0.50
2022-09-15T10:05:32.266Z,0.70
2022-09-15T10:06:32.263Z,0.50
2022-09-15T10:07:32.275Z,0.40
2022-09-15T10:08:32.258Z,0.90
2022-09-15T10:09:33.525Z,0.70
2022-09-15T10:10:32.237Z,0.20
2022-09-15T10:11:32.208Z,0.60
2022-09-15T10:12:32.224Z,0.50
2022-09-15T10:13:32.208Z,0.70
2022-09-15T10:14:32.176Z,0.40
2022-09-15T10:15:32.158Z,0.70
2022-09-15T10:16:32.208Z,0.60
2022-09-15T10:17:32.139Z,0.50
2022-09-15T10:18:32.128Z,0.60
2022-09-15T10:19:32.140Z,0.40
2022-09-15T10:20:32.110Z,0.60
2022-09-15T10:21:32.102Z,0.60
2022-09-15T10:22:32.090Z,0.40
2022-09-15T10:23:32.100Z,0.50
2022-09-15T10:24:32.072Z,0.80
2022-09-15T10:25:49.257Z,0.80
2022-09-15T10:26:33.041Z,0.30
2022-09-15T10:27:32.045Z,0.80
2022-09-15T10:28:32.042Z,0.50
2022-09-15T10:29:32.002Z,0.50
2022-09-15T10:30:32.023Z,0.50
2022-09-15T10:31:32.048Z,0.40
2022-09-15T10:32:31.979Z,0.60
2022-09-15T10:33:31.970Z,0.90
2022-09-15T10:34:31.976Z,0.60
2022-09-15T10:35:31.943Z,0.70
2022-09-15T10:36:31.962Z,0.90
2022-09-15T10:37:31.924Z,0.50
2022-09-15T10:38:31.921Z,0.50
2022-09-15T10:39:31.896Z,0.90
2022-09-15T10:40:31.945Z,0.40
2022-09-15T10:41:31.892Z,0.40
2022-09-15T10:42:31.887Z,0.40
2022-09-15T10:43:31.853Z,0.40
2022-09-15T10:44:31.846Z,0.40
2022-09-15T10:45:31.889Z,0.20
2022-09-15T10:46:31.828Z,0.60
2022-09-15T10:47:31.815Z,0.50
2022-09-15T10:48:31.805Z,0.40
2022-09-15T10:49:31.794Z,0.30
2022-09-15T10:50:31.808Z,0.40
2022-09-15T10:51:31.778Z,0.40
2022-09-15T10:52:31.759Z,0.70
2022-09-15T10:53:31.767Z,0.40
2022-09-15T10:54:31.776Z,0.40
2022-09-15T10:55:51.090Z,0.30
2022-09-15T10:56:32.720Z,0.50
2022-09-15T10:57:31.723Z,0.50
2022-09-15T10:58:31.717Z,0.50
2022-09-15T10:59:31.680Z,0.30
2022-09-15T11:00:31.679Z,0.60
2022-09-15T11:01:31.659Z,0.50
2022-09-15T11:02:31.734Z,0.70
2022-09-15T11:03:31.639Z,0.70
2022-09-15T11:04:31.638Z,0.40
2022-09-15T11:05:31.613Z,0.60
2022-09-15T11:06:31.610Z,0.40
2022-09-15T11:07:31.601Z,0.40
2022-09-15T11:08:31.612Z,0.40
2022-09-15T11:09:31.573Z,0.40
2022-09-15T11:10:31.571Z,0.30
2022-09-15T11:11:31.545Z,0.20
2022-09-15T11:12:31.564Z,0.50
2022-09-15T11:13:31.538Z,0.20
2022-09-15T11:14:31.546Z,0.20
2022-09-15T11:15:31.504Z,0.30
2022-09-15T11:16:31.587Z,0.30
2022-09-15T11:17:31.484Z,0.40
2022-09-15T11:18:31.475Z,0.40
2022-09-15T11:19:31.462Z,0.20
2022-09-15T11:20:31.474Z,0.30
2022-09-15T11:21:31.437Z,0.20
2022-09-15T11:22:31.437Z,0.20
2022-09-15T11:23:31.418Z,0.40
2022-09-15T11:24:31.418Z,0.40
2022-09-15T11:25:31.417Z,0.20
2022-09-15T11:26:31.394Z,0.20
2022-09-15T11:27:31.379Z,0.30
2022-09-15T11:28:31.367Z,0.60
2022-09-15T11:29:39.147Z,0.20
2022-09-15T11:30:31.375Z,0.50
2022-09-15T11:31:31.425Z,0.20
2022-09-15T11:32:31.327Z,0.30
2022-09-15T11:33:31.307Z,0.20
2022-09-15T11:34:31.316Z,0.40
2022-09-15T11:35:31.289Z,0.30
2022-09-15T11:36:31.304Z,0.30
2022-09-15T11:37:31.269Z,0.30
2022-09-15T11:38:31.259Z,0.30
2022-09-15T11:39:31.245Z,0.30
2022-09-15T11:40:31.288Z,0.30
2022-09-15T11:41:31.239Z,0.60
2022-09-15T11:42:31.218Z,0.20
2022-09-15T11:43:31.198Z,0.30
2022-09-15T11:44:31.201Z,0.30
2022-09-15T11:45:31.186Z,0.20
2022-09-15T11:46:31.280Z,0.30
2022-09-15T11:47:31.158Z,0.30
2022-09-15T11:48:31.151Z,0.10
2022-09-15T11:49:31.136Z,0.60
2022-09-15T11:50:31.134Z,0.20
2022-09-15T11:51:31.140Z,0.20
2022-09-15T11:52:31.102Z,0.40
2022-09-15T11:53:31.126Z,0.50
2022-09-15T11:54:31.637Z,0.20
2022-09-15T11:55:31.071Z,0.60
2022-09-15T11:56:31.083Z,0.20
2022-09-15T11:57:31.042Z,0.30
2022-09-15T11:58:31.041Z,0.50
2022-09-15T11:59:31.023Z,0.20
2022-09-15T12:00:31.022Z,0.30
2022-09-15T12:01:31.079Z,0.20
2022-09-15T12:02:31.053Z,0.20
2022-09-15T12:03:30.984Z,0.20
2022-09-15T12:04:30.974Z,0.10
2022-09-15T12:05:30.963Z,0.30
2022-09-15T12:06:30.955Z,0.40
2022-09-15T12:07:30.966Z,0.30
2022-09-15T12:08:30.936Z,0.40
2022-09-15T12:09:30.914Z,0.30
2022-09-15T12:10:30.918Z,0.30
2022-09-15T12:11:30.894Z,0.30
2022-09-15T12:12:31.440Z,0.30
2022-09-15T12:13:30.896Z,0.40
2022-09-15T12:14:30.865Z,0.10
2022-09-15T12:15:30.848Z,0.20
2022-09-15T12:16:30.846Z,0.20
2022-09-15T12:17:30.827Z,0.20
2022-09-15T12:18:40.169Z,0.30
2022-09-15T12:19:31.833Z,0.40
2022-09-15T12:20:30.807Z,0.10
2022-09-15T12:21:30.787Z,0.30
2022-09-15T12:22:30.786Z,0.30
2022-09-15T12:23:30.768Z,0.20
2022-09-15T12:24:30.783Z,0.20
2022-09-15T12:25:30.739Z,0.30
2022-09-15T12:26:30.729Z,0.20
2022-09-15T12:27:30.750Z,0.30
2022-09-15T12:29:30.710Z,0.20
2022-09-15T12:30:30.711Z,0.50
2022-09-15T12:31:30.726Z,0.30
2022-09-15T12:32:30.677Z,0.40
2022-09-15T12:33:30.660Z,0.30
2022-09-15T12:34:30.659Z,0.40
2022-09-15T12:35:30.652Z,0.20
2022-09-15T12:36:30.632Z,0.20
2022-09-15T12:37:30.620Z,0.20
2022-09-15T12:38:30.628Z,0.60
2022-09-15T12:39:30.597Z,0.30
2022-09-15T12:40:30.657Z,0.40
2022-09-15T12:41:30.573Z,0.40
2022-09-15T12:42:30.561Z,0.60
2022-09-15T12:43:30.575Z,0.50
2022-09-15T12:44:30.534Z,0.40
2022-09-15T12:45:30.524Z,0.80
2022-09-15T12:46:30.555Z,0.60
2022-09-15T12:47:30.505Z,0.30
2022-09-15T12:48:30.524Z,0.20
2022-09-15T12:49:30.487Z,0.30
2022-09-15T12:50:30.476Z,0.40
2022-09-15T12:51:30.466Z,0.20
2022-09-15T12:52:30.446Z,0.40
2022-09-15T12:53:30.501Z,0.40
2022-09-15T12:54:30.447Z,0.40
2022-09-15T12:55:30.423Z,0.30
2022-09-15T12:56:30.406Z,0.30
2022-09-15T12:57:30.396Z,0.30
2022-09-15T12:58:30.392Z,0.60
2022-09-15T12:59:30.398Z,0.30
2022-09-15T13:00:30.364Z,0.30
2022-09-15T13:01:30.386Z,0.20
2022-09-15T13:02:30.523Z,0.50
2022-09-15T13:03:30.438Z,0.60
2022-09-15T13:04:30.340Z,0.50
2022-09-15T13:05:30.308Z,0.50
2022-09-15T13:06:30.300Z,0.40
2022-09-15T13:07:30.290Z,0.60
2022-09-15T13:08:30.279Z,0.30
2022-09-15T13:09:30.338Z,0.50
2022-09-15T13:10:30.259Z,0.30
2022-09-15T13:11:30.336Z,0.20
2022-09-15T13:12:30.232Z,0.50
2022-09-15T13:13:32.795Z,0.60
2022-09-15T13:14:30.232Z,0.30
2022-09-15T13:15:30.253Z,0.50
2022-09-15T13:16:30.197Z,0.50
2022-09-15T13:17:30.190Z,0.50
2022-09-15T13:18:30.169Z,0.30
2022-09-15T13:19:30.154Z,0.30